« Back
NWS Peachtree City, Ga » Text Product » AHN Terminal Aerodrome Forecast


Printer-friendly Version
Current Version              Previous Versions:   1  2  3  4  5  6  7  8  9  

Terminal Aerodrome Forecast

910
FTUS42 KFFC 282335
TAFAHN
TAF
KAHN 282335Z 2900/2924 28003KT P6SM VCSH SCT050 BKN120
     FM290200 00000KT P6SM BKN070
     FM290900 00000KT 6SM BR BKN015
     FM291500 12003KT P6SM BKN025
     FM291600 12003KT P6SM SCT035 PROB30 2919/2922 5SM TSRA
      BKN025CB=

USA.gov is the U.S. government's official web portal to all federal, state and local government web resources and services.